Time,TemperatureF,DewpointF,PressureIn,WindDirection,WindDirectionDegrees,WindSpeedMPH,WindSpeedGustMPH,Humidity,HourlyPrecipIn,Conditions,Clouds,dailyrainin,SoftwareType,DateUTC
2014-12-17 00:00:00,33.1,31.8,30.12,ESE,102,0.0,0.0,95,0.00,,,0.01,Wunderground v.1.15,2014-12-17 05:00:00,
2014-12-17 00:10:00,32.9,31.6,30.11,ESE,102,0.0,0.0,95,0.00,,,0.00,Wunderground v.1.15,2014-12-17 05:10:00,
2014-12-17 00:15:00,32.9,31.6,30.11,ESE,102,0.0,0.0,95,0.00,,,0.00,Wunderground v.1.15,2014-12-17 05:15:00,
2014-12-17 00:25:00,32.9,31.6,30.11,ESE,102,0.0,0.0,95,0.00,,,0.00,Wunderground v.1.15,2014-12-17 05:25:00,
2014-12-17 00:30:00,33.0,32.0,30.11,ESE,102,0.0,0.0,96,0.00,,,0.00,Wunderground v.1.15,2014-12-17 05:30:00,
2014-12-17 00:40:00,32.8,31.5,30.10,ESE,102,0.0,0.0,95,0.00,,,0.00,Wunderground v.1.15,2014-12-17 05:40:00,
2014-12-17 00:45:00,32.8,31.5,30.10,ESE,102,0.0,0.0,95,0.00,,,0.00,Wunderground v.1.15,2014-12-17 05:45:00,
2014-12-17 00:55:00,32.9,31.6,30.10,ESE,102,0.0,0.0,95,0.00,,,0.00,Wunderground v.1.15,2014-12-17 05:55:00,
2014-12-17 01:00:00,32.7,31.4,30.09,ESE,102,0.0,0.0,95,0.00,,,0.00,Wunderground v.1.15,2014-12-17 06:00:00,
2014-12-17 01:10:00,32.6,31.3,30.09,ESE,102,0.0,0.0,95,0.00,,,0.00,Wunderground v.1.15,2014-12-17 06:10:00,
2014-12-17 01:15:00,32.8,31.5,30.10,ESE,102,0.0,0.0,95,0.00,,,0.01,Wunderground v.1.15,2014-12-17 06:15:00,
2014-12-17 01:25:00,32.6,31.3,30.09,ESE,102,0.0,0.0,95,0.00,,,0.01,Wunderground v.1.15,2014-12-17 06:25:00,
2014-12-17 01:35:00,32.4,31.1,30.09,ESE,102,0.0,0.0,95,0.00,,,0.01,Wunderground v.1.15,2014-12-17 06:35:00,
2014-12-17 01:45:00,32.3,31.0,30.08,ESE,102,0.0,0.0,95,0.00,,,0.02,Wunderground v.1.15,2014-12-17 06:45:00,
2014-12-17 01:55:00,32.2,30.9,30.08,ESE,102,0.0,0.0,95,0.04,,,0.03,Wunderground v.1.15,2014-12-17 06:55:00,
2014-12-17 02:00:00,32.2,31.2,30.08,ESE,102,0.0,0.0,96,0.04,,,0.03,Wunderground v.1.15,2014-12-17 07:00:00,
2014-12-17 02:10:00,32.2,31.2,30.08,ESE,102,0.0,0.0,96,0.00,,,0.03,Wunderground v.1.15,2014-12-17 07:10:00,
2014-12-17 02:20:00,32.3,31.3,30.08,ESE,102,0.0,0.0,96,0.00,,,0.03,Wunderground v.1.15,2014-12-17 07:20:00,
2014-12-17 02:25:00,32.3,31.3,30.08,ESE,102,0.0,0.0,96,0.00,,,0.03,Wunderground v.1.15,2014-12-17 07:25:00,
2014-12-17 02:35:00,32.4,31.4,30.08,ESE,102,0.0,0.0,96,0.00,,,0.03,Wunderground v.1.15,2014-12-17 07:35:00,
2014-12-17 02:45:00,32.4,31.4,30.07,East,101,1.0,1.0,96,0.00,,,0.04,Wunderground v.1.15,2014-12-17 07:45:00,
2014-12-17 02:55:00,32.5,31.5,30.07,East,95,1.0,2.0,96,0.00,,,0.04,Wunderground v.1.15,2014-12-17 07:55:00,
2014-12-17 03:00:00,32.5,31.5,30.07,East,101,1.0,1.0,96,0.00,,,0.05,Wunderground v.1.15,2014-12-17 08:00:00,
2014-12-17 03:10:00,32.6,31.6,30.06,East,95,2.0,2.0,96,0.00,,,0.05,Wunderground v.1.15,2014-12-17 08:10:00,
2014-12-17 03:15:00,32.6,31.6,30.06,ESE,112,2.0,2.0,96,0.00,,,0.05,Wunderground v.1.15,2014-12-17 08:15:00,
2014-12-17 03:25:00,32.6,31.6,30.05,East,101,3.0,3.0,96,0.00,,,0.05,Wunderground v.1.15,2014-12-17 08:25:00,
2014-12-17 03:35:00,32.6,31.6,30.05,East,101,3.0,3.0,96,0.00,,,0.05,Wunderground v.1.15,2014-12-17 08:35:00,
2014-12-17 03:45:00,32.6,31.6,30.05,ESE,113,2.0,3.0,96,0.00,,,0.05,Wunderground v.1.15,2014-12-17 08:45:00,
2014-12-17 03:55:00,32.7,31.7,30.04,East,98,2.0,2.0,96,0.00,,,0.05,Wunderground v.1.15,2014-12-17 08:55:00,
2014-12-17 04:00:00,32.6,31.6,30.04,ESE,109,2.0,2.0,96,0.00,,,0.05,Wunderground v.1.15,2014-12-17 09:00:00,
2014-12-17 04:10:00,32.7,31.7,30.04,ESE,123,1.0,2.0,96,0.00,,,0.05,Wunderground v.1.15,2014-12-17 09:10:00,
2014-12-17 04:20:00,32.8,31.8,30.04,ESE,123,1.0,1.0,96,0.00,,,0.05,Wunderground v.1.15,2014-12-17 09:20:00,
2014-12-17 04:25:00,32.8,31.8,30.04,East,94,1.0,1.0,96,0.00,,,0.05,Wunderground v.1.15,2014-12-17 09:25:00,
2014-12-17 04:35:00,32.8,31.8,30.03,East,89,1.0,1.0,96,0.00,,,0.05,Wunderground v.1.15,2014-12-17 09:35:00,
2014-12-17 04:45:00,32.8,31.8,30.03,East,93,0.0,2.0,96,0.00,,,0.05,Wunderground v.1.15,2014-12-17 09:45:00,
2014-12-17 04:55:00,32.8,31.8,30.03,East,93,0.0,1.0,96,0.00,,,0.06,Wunderground v.1.15,2014-12-17 09:55:00,
2014-12-17 05:00:00,32.9,31.9,30.03,East,97,0.0,0.0,96,0.00,,,0.06,Wunderground v.1.15,2014-12-17 10:00:00,
2014-12-17 05:10:00,33.0,32.0,30.02,East,101,1.0,1.0,96,0.00,,,0.06,Wunderground v.1.15,2014-12-17 10:10:00,
2014-12-17 05:20:00,33.0,32.0,30.02,East,98,1.0,1.0,96,0.00,,,0.06,Wunderground v.1.15,2014-12-17 10:20:00,
2014-12-17 05:25:00,33.0,32.0,30.02,East,100,1.0,1.0,96,0.00,,,0.06,Wunderground v.1.15,2014-12-17 10:25:00,
2014-12-17 05:35:00,33.1,32.1,30.02,ESE,109,1.0,1.0,96,0.00,,,0.06,Wunderground v.1.15,2014-12-17 10:35:00,
2014-12-17 05:45:00,33.2,32.2,30.02,ESE,107,0.0,1.0,96,0.00,,,0.06,Wunderground v.1.15,2014-12-17 10:45:00,
2014-12-17 05:55:00,33.2,32.2,30.02,ESE,107,0.0,0.0,96,0.00,,,0.07,Wunderground v.1.15,2014-12-17 10:55:00,
2014-12-17 06:00:00,33.5,32.5,30.02,ESE,107,0.0,0.0,96,0.00,,,0.07,Wunderground v.1.15,2014-12-17 11:00:00,
2014-12-17 06:10:00,32.9,31.9,30.02,ESE,107,0.0,0.0,96,0.06,,,0.08,Wunderground v.1.15,2014-12-17 11:10:00,
2014-12-17 06:15:00,32.8,31.8,30.02,ESE,107,0.0,0.0,96,0.05,,,0.08,Wunderground v.1.15,2014-12-17 11:15:00,
2014-12-17 06:25:00,32.9,31.9,30.02,ESE,107,0.0,1.0,96,0.04,,,0.09,Wunderground v.1.15,2014-12-17 11:25:00,
2014-12-17 06:35:00,33.0,32.0,30.01,ESE,107,0.0,0.0,96,0.06,,,0.10,Wunderground v.1.15,2014-12-17 11:35:00,
2014-12-17 06:45:00,33.7,32.7,30.00,East,98,2.0,2.0,96,0.12,,,0.12,Wunderground v.1.15,2014-12-17 11:45:00,
2014-12-17 06:55:00,33.7,32.7,30.00,SE,126,1.0,2.0,96,0.14,,,0.14,Wunderground v.1.15,2014-12-17 11:55:00,
2014-12-17 07:00:00,33.6,32.6,30.00,ESE,110,1.0,2.0,96,0.11,,,0.14,Wunderground v.1.15,2014-12-17 12:00:00,
2014-12-17 07:10:00,33.7,32.7,29.99,ESE,122,2.0,2.0,96,0.13,,,0.16,Wunderground v.1.15,2014-12-17 12:10:00,
2014-12-17 07:20:00,33.7,32.7,29.99,East,88,2.0,2.0,96,0.15,,,0.18,Wunderground v.1.15,2014-12-17 12:20:00,
2014-12-17 07:30:00,34.0,33.0,29.99,ESE,107,2.0,2.0,96,0.23,,,0.22,Wunderground v.1.15,2014-12-17 12:30:00,
2014-12-17 07:40:00,34.1,33.1,29.98,East,86,2.0,3.0,96,0.18,,,0.24,Wunderground v.1.15,2014-12-17 12:40:00,
2014-12-17 07:50:00,34.2,33.2,29.98,ESE,102,2.0,2.0,96,0.07,,,0.25,Wunderground v.1.15,2014-12-17 12:50:00,
2014-12-17 08:00:00,34.2,33.2,29.98,East,99,2.0,2.0,96,0.09,,,0.27,Wunderground v.1.15,2014-12-17 13:00:00,
2014-12-17 08:10:00,34.3,33.3,29.98,East,83,2.0,2.0,96,0.10,,,0.29,Wunderground v.1.15,2014-12-17 13:10:00,
2014-12-17 08:20:00,34.4,33.4,29.98,East,96,2.0,2.0,96,0.07,,,0.30,Wunderground v.1.15,2014-12-17 13:20:00,
2014-12-17 08:30:00,34.6,33.6,29.98,ESE,119,2.0,2.0,96,0.06,,,0.31,Wunderground v.1.15,2014-12-17 13:30:00,
2014-12-17 08:40:00,34.9,33.9,29.97,East,88,2.0,2.0,96,0.04,,,0.32,Wunderground v.1.15,2014-12-17 13:40:00,
2014-12-17 08:50:00,35.1,34.1,29.97,ESE,109,2.0,2.0,96,0.04,,,0.32,Wunderground v.1.15,2014-12-17 13:50:00,
2014-12-17 09:00:00,35.3,34.5,29.97,ESE,119,2.0,2.0,97,0.00,,,0.32,Wunderground v.1.15,2014-12-17 14:00:00,
2014-12-17 09:10:00,35.5,34.7,29.97,ENE,66,1.0,3.0,97,0.00,,,0.33,Wunderground v.1.15,2014-12-17 14:10:00,
2014-12-17 09:20:00,35.6,34.6,29.96,East,80,1.0,1.0,96,0.00,,,0.33,Wunderground v.1.15,2014-12-17 14:20:00,
2014-12-17 09:25:00,35.7,34.7,29.96,ESE,104,2.0,4.0,96,0.00,,,0.34,Wunderground v.1.15,2014-12-17 14:25:00,
2014-12-17 09:35:00,35.8,34.8,29.96,East,92,3.0,3.0,96,0.05,,,0.35,Wunderground v.1.15,2014-12-17 14:35:00,
2014-12-17 09:45:00,35.8,34.8,29.95,ENE,72,2.0,3.0,96,0.06,,,0.36,Wunderground v.1.15,2014-12-17 14:45:00,
2014-12-17 09:55:00,35.9,35.1,29.95,ENE,67,2.0,2.0,97,0.08,,,0.37,Wunderground v.1.15,2014-12-17 14:55:00,
2014-12-17 10:00:00,35.9,35.1,29.95,ENE,67,1.0,1.0,97,0.07,,,0.37,Wunderground v.1.15,2014-12-17 15:00:00,
2014-12-17 10:10:00,36.1,35.3,29.94,East,87,1.0,2.0,97,0.08,,,0.39,Wunderground v.1.15,2014-12-17 15:10:00,
2014-12-17 10:20:00,36.3,35.3,29.94,ENE,71,2.0,2.0,96,0.06,,,0.40,Wunderground v.1.15,2014-12-17 15:20:00,
2014-12-17 10:30:00,36.3,35.3,29.93,ENE,77,1.0,1.0,96,0.06,,,0.40,Wunderground v.1.15,2014-12-17 15:30:00,
2014-12-17 10:40:00,36.4,35.4,29.92,NNE,26,1.0,1.0,96,0.05,,,0.41,Wunderground v.1.15,2014-12-17 15:40:00,
2014-12-17 10:50:00,36.5,35.7,29.92,East,82,1.0,1.0,97,0.00,,,0.41,Wunderground v.1.15,2014-12-17 15:50:00,
2014-12-17 11:00:00,36.8,36.0,29.91,SE,132,2.0,2.0,97,0.00,,,0.41,Wunderground v.1.15,2014-12-17 16:00:00,
2014-12-17 11:10:00,37.0,36.0,29.91,East,95,1.0,1.0,96,0.00,,,0.42,Wunderground v.1.15,2014-12-17 16:10:00,
2014-12-17 11:20:00,37.4,36.6,29.90,SE,126,2.0,2.0,97,0.00,,,0.42,Wunderground v.1.15,2014-12-17 16:20:00,
2014-12-17 11:30:00,37.7,36.9,29.90,ENE,75,2.0,2.0,97,0.00,,,0.42,Wunderground v.1.15,2014-12-17 16:30:00,
2014-12-17 11:40:00,37.7,36.9,29.90,SE,138,2.0,2.0,97,0.00,,,0.42,Wunderground v.1.15,2014-12-17 16:40:00,
2014-12-17 11:45:00,37.7,36.9,29.89,SE,138,0.0,2.0,97,0.00,,,0.42,Wunderground v.1.15,2014-12-17 16:45:00,
2014-12-17 11:55:00,37.8,37.0,29.89,East,81,1.0,1.0,97,0.00,,,0.43,Wunderground v.1.15,2014-12-17 16:55:00,
2014-12-17 12:00:00,37.9,37.1,29.88,East,88,2.0,2.0,97,0.00,,,0.43,Wunderground v.1.15,2014-12-17 17:00:00,
2014-12-17 12:10:00,37.9,37.1,29.87,ENE,71,1.0,2.0,97,0.04,,,0.44,Wunderground v.1.15,2014-12-17 17:10:00,
2014-12-17 12:20:00,38.2,37.4,29.87,East,90,1.0,1.0,97,0.04,,,0.44,Wunderground v.1.15,2014-12-17 17:20:00,
2014-12-17 12:30:00,38.5,37.7,29.87,ENE,71,2.0,3.0,97,0.00,,,0.44,Wunderground v.1.15,2014-12-17 17:30:00,
2014-12-17 12:35:00,38.6,37.8,29.86,NE,42,3.0,4.0,97,0.00,,,0.45,Wunderground v.1.15,2014-12-17 17:35:00,
2014-12-17 12:45:00,38.7,37.9,29.86,NNE,27,4.0,5.0,97,0.00,,,0.45,Wunderground v.1.15,2014-12-17 17:45:00,
2014-12-17 12:55:00,39.1,38.3,29.86,ENE,58,4.0,9.0,97,0.00,,,0.45,Wunderground v.1.15,2014-12-17 17:55:00,
2014-12-17 13:00:00,39.1,38.3,29.86,NE,36,4.0,9.0,97,0.00,,,0.45,Wunderground v.1.15,2014-12-17 18:00:00,
2014-12-17 13:10:00,39.1,38.3,29.85,ENE,78,6.0,6.0,97,0.00,,,0.45,Wunderground v.1.15,2014-12-17 18:10:00,
2014-12-17 13:20:00,39.0,38.2,29.85,East,90,5.0,5.0,97,0.00,,,0.45,Wunderground v.1.15,2014-12-17 18:20:00,
2014-12-17 13:25:00,38.9,38.1,29.85,NE,49,5.0,10.0,97,0.00,,,0.45,Wunderground v.1.15,2014-12-17 18:25:00,
2014-12-17 13:30:00,38.9,38.1,29.85,ENE,69,5.0,7.0,97,0.00,,,0.45,Wunderground v.1.15,2014-12-17 18:30:00,
2014-12-17 13:35:00,38.9,38.1,29.85,NE,56,5.0,7.0,97,0.00,,,0.45,Wunderground v.1.15,2014-12-17 18:35:00,
2014-12-17 13:45:00,38.8,38.0,29.85,ENE,65,5.0,12.0,97,0.00,,,0.45,Wunderground v.1.15,2014-12-17 18:45:00,
2014-12-17 13:55:00,38.7,37.7,29.85,NE,46,6.0,7.0,96,0.00,,,0.45,Wunderground v.1.15,2014-12-17 18:55:00,
2014-12-17 14:00:00,38.7,37.9,29.84,East,83,5.0,5.0,97,0.00,,,0.45,Wunderground v.1.15,2014-12-17 19:00:00,
2014-12-17 14:10:00,38.7,37.9,29.84,ENE,75,5.0,5.0,97,0.00,,,0.45,Wunderground v.1.15,2014-12-17 19:10:00,
2014-12-17 14:15:00,38.7,37.9,29.84,NE,41,5.0,5.0,97,0.00,,,0.45,Wunderground v.1.15,2014-12-17 19:15:00,
2014-12-17 14:25:00,38.6,37.6,29.84,NE,47,4.0,5.0,96,0.00,,,0.45,Wunderground v.1.15,2014-12-17 19:25:00,
2014-12-17 14:35:00,38.6,37.6,29.84,NE,37,5.0,7.0,96,0.00,,,0.45,Wunderground v.1.15,2014-12-17 19:35:00,
2014-12-17 14:45:00,38.5,37.5,29.84,ENE,78,4.0,5.0,96,0.00,,,0.45,Wunderground v.1.15,2014-12-17 19:45:00,
2014-12-17 14:55:00,38.4,37.4,29.85,East,82,5.0,5.0,96,0.00,,,0.45,Wunderground v.1.15,2014-12-17 19:55:00,
2014-12-17 15:00:00,38.3,37.3,29.85,NE,44,5.0,5.0,96,0.00,,,0.45,Wunderground v.1.15,2014-12-17 20:00:00,
2014-12-17 15:10:00,38.2,37.2,29.85,ENE,74,5.0,5.0,96,0.00,,,0.45,Wunderground v.1.15,2014-12-17 20:10:00,
2014-12-17 15:20:00,38.2,37.2,29.85,ENE,75,4.0,4.0,96,0.00,,,0.45,Wunderground v.1.15,2014-12-17 20:20:00,
2014-12-17 15:30:00,38.1,37.1,29.85,East,92,4.0,4.0,96,0.00,,,0.45,Wunderground v.1.15,2014-12-17 20:30:00,
2014-12-17 15:40:00,37.9,36.9,29.85,ENE,57,4.0,4.0,96,0.00,,,0.45,Wunderground v.1.15,2014-12-17 20:40:00,